Time;durP1;ratioP1;P1;durP2;ratioP2;P2;SDS_P1;SDS_P2;PMS_P1;PMS_P2;Temp;Humidity;BMP_temperature;BMP_pressure;BME280_temperature;BME280_humidity;BME280_pressure;Samples;Min_cycle;Max_cycle;Signal;HPM_P1;HPM_P2
2023/01/01 00:01:53;;;;;;;;;;;25.20;99.90;;;;;;5013601;28;20368;-71
2023/01/01 00:04:20;;;;;;;;;;;25.30;99.90;;;;;;5013665;28;19913;-77
2023/01/01 00:06:46;;;;;;;;;;;25.20;99.90;;;;;;5013163;28;20386;-75
2023/01/01 00:11:58;;;;;;;;;;;25.40;99.90;;;;;;5013134;28;19932;-75
2023/01/01 00:14:24;;;;;;;;;;;25.50;99.90;;;;;;5013058;28;19914;-77
2023/01/01 00:16:53;;;;;;;;;;;25.40;99.90;;;;;;5012677;28;20379;-78
2023/01/01 00:19:20;;;;;;;;;;;25.30;99.90;;;;;;5012995;28;20364;-77
2023/01/01 00:21:46;;;;;;;;;;;25.10;99.90;;;;;;5012424;28;19918;-73
2023/01/01 00:24:13;;;;;;;;;;;25.20;99.90;;;;;;5012874;28;19914;-74
2023/01/01 00:26:40;;;;;;;;;;;25.20;99.90;;;;;;5012167;28;20323;-77
2023/01/01 00:29:06;;;;;;;;;;;25.30;99.90;;;;;;5012526;28;19920;-78
2023/01/01 00:31:34;;;;;;;;;;;25.30;99.90;;;;;;5013006;28;19918;-77
2023/01/01 00:34:03;;;;;;;;;;;25.20;99.90;;;;;;5012344;28;19948;-68
2023/01/01 00:36:30;;;;;;;;;;;25.20;99.90;;;;;;5012522;28;19953;-77
2023/01/01 00:38:57;;;;;;;;;;;25.20;99.90;;;;;;5012837;28;19913;-78
2023/01/01 00:41:23;;;;;;;;;;;25.30;99.90;;;;;;5009869;28;19913;-76
2023/01/01 00:43:51;;;;;;;;;;;25.30;99.90;;;;;;5011801;28;19917;-73
2023/01/01 00:46:17;;;;;;;;;;;25.30;99.90;;;;;;5011817;28;19913;-78
2023/01/01 00:48:44;;;;;;;;;;;25.20;99.90;;;;;;5012562;28;19909;-77
2023/01/01 00:51:11;;;;;;;;;;;25.30;99.90;;;;;;5012542;28;20386;-73
2023/01/01 00:53:37;;;;;;;;;;;25.50;99.90;;;;;;5012374;28;19914;-76
2023/01/01 00:56:06;;;;;;;;;;;25.60;99.90;;;;;;5011293;28;19909;-75
2023/01/01 00:58:32;;;;;;;;;;;25.70;99.90;;;;;;5011902;28;19936;-76
2023/01/01 01:00:59;;;;;;;;;;;25.70;99.90;;;;;;5012359;28;20351;-73
2023/01/01 01:03:29;;;;;;;;;;;26.20;99.90;;;;;;5012325;28;19913;-79
2023/01/01 01:05:59;;;;;;;;;;;26.60;99.90;;;;;;5011816;28;19914;-77
2023/01/01 01:08:26;;;;;;;;;;;27.10;99.90;;;;;;4999572;28;19925;-73
2023/01/01 01:10:53;;;;;;;;;;;27.40;99.90;;;;;;5009978;28;19925;-76
2023/01/01 01:13:20;;;;;;;;;;;27.50;99.90;;;;;;5012106;28;19913;-72
2023/01/01 01:15:47;;;;;;;;;;;27.80;99.90;;;;;;5012077;28;19910;-78
2023/01/01 01:18:13;;;;;;;;;;;27.90;99.90;;;;;;5020852;28;20018;-79
2023/01/01 01:20:40;;;;;;;;;;;28.10;99.90;;;;;;5017602;28;19921;-78
2023/01/01 01:23:06;;;;;;;;;;;28.30;99.90;;;;;;5011405;28;19933;-77
2023/01/01 01:25:33;;;;;;;;;;;28.50;99.90;;;;;;5014749;28;20378;-74
2023/01/01 01:28:00;;;;;;;;;;;28.80;99.90;;;;;;5011215;28;20008;-77
2023/01/01 01:30:26;;;;;;;;;;;29.10;99.90;;;;;;5011320;28;20016;-72
2023/01/01 01:32:53;;;;;;;;;;;29.10;99.90;;;;;;5011497;28;19920;-75
2023/01/01 01:35:20;;;;;;;;;;;29.40;99.90;;;;;;5010800;28;19926;-72
2023/01/01 01:37:47;;;;;;;;;;;29.20;99.90;;;;;;5012055;28;19917;-77
2023/01/01 01:40:16;;;;;;;;;;;29.20;99.90;;;;;;5011715;28;19913;-70
2023/01/01 01:42:47;;;;;;;;;;;29.30;99.90;;;;;;5012023;28;19913;-78
2023/01/01 01:45:14;;;;;;;;;;;29.60;99.90;;;;;;5011482;28;19914;-72
2023/01/01 01:47:57;;;;;;;;;;;29.60;99.90;;;;;;5011997;28;19910;-74
2023/01/01 01:50:35;;;;;;;;;;;29.00;99.90;;;;;;5011971;28;19914;-77
2023/01/01 01:53:07;;;;;;;;;;;28.60;99.90;;;;;;5011916;28;19968;-74
2023/01/01 01:55:36;;;;;;;;;;;28.20;99.90;;;;;;5011463;28;20000;-73
2023/01/01 01:58:03;;;;;;;;;;;27.80;99.90;;;;;;5011899;28;19910;-70
2023/01/01 02:00:30;;;;;;;;;;;27.60;99.90;;;;;;5011705;28;19909;-73
2023/01/01 02:03:02;;;;;;;;;;;27.50;99.90;;;;;;5011928;28;19921;-72
2023/01/01 02:05:30;;;;;;;;;;;27.30;99.90;;;;;;5011414;28;19910;-68
2023/01/01 02:07:57;;;;;;;;;;;27.10;99.90;;;;;;5008978;28;20315;-73
2023/01/01 02:10:24;;;;;;;;;;;26.90;99.90;;;;;;5016164;28;20510;-71
2023/01/01 02:12:51;;;;;;;;;;;27.00;99.90;;;;;;5015961;28;19914;-76
2023/01/01 02:15:17;;;;;;;;;;;27.00;99.90;;;;;;5013997;28;20019;-73
2023/01/01 02:17:53;;;;;;;;;;;26.90;99.90;;;;;;5011561;28;19921;-73
2023/01/01 02:20:40;;;;;;;;;;;26.90;99.90;;;;;;5027786;28;19968;-79
2023/01/01 02:23:16;;;;;;;;;;;26.80;99.90;;;;;;5014839;28;19921;-77
2023/01/01 02:25:57;;;;;;;;;;;26.60;99.90;;;;;;5014759;28;19914;-78
2023/01/01 02:28:30;;;;;;;;;;;26.60;99.90;;;;;;5015071;28;19909;-74
2023/01/01 02:30:58;;;;;;;;;;;26.50;99.90;;;;;;5014861;28;20429;-74
2023/01/01 02:33:26;;;;;;;;;;;26.50;99.90;;;;;;5014730;28;19913;-77
2023/01/01 02:36:01;;;;;;;;;;;26.40;99.90;;;;;;5014776;28;19926;-72
2023/01/01 02:38:34;;;;;;;;;;;26.30;99.90;;;;;;5014932;28;19917;-75
2023/01/01 02:41:02;;;;;;;;;;;26.20;99.90;;;;;;5015061;28;19909;-73
2023/01/01 02:43:28;;;;;;;;;;;26.10;99.90;;;;;;5014886;28;20000;-73
2023/01/01 02:45:55;;;;;;;;;;;26.00;99.90;;;;;;5013974;28;20015;-73
2023/01/01 02:48:40;;;;;;;;;;;25.80;99.90;;;;;;4995209;28;19910;-76
2023/01/01 02:51:13;;;;;;;;;;;25.70;99.90;;;;;;5016821;28;20015;-73
2023/01/01 02:54:05;;;;;;;;;;;25.70;99.90;;;;;;5014310;28;19921;-75
2023/01/01 02:56:38;;;;;;;;;;;25.70;99.90;;;;;;4984838;28;19922;-74
2023/01/01 03:02:11;;;;;;;;;;;25.70;99.90;;;;;;5014499;28;19963;-70
2023/01/01 03:04:37;;;;;;;;;;;26.00;99.90;;;;;;5013818;28;19914;-68
2023/01/01 03:07:15;;;;;;;;;;;26.10;99.90;;;;;;5013576;28;20295;-75
2023/01/01 03:09:58;;;;;;;;;;;26.00;99.90;;;;;;5013882;28;19952;-72
2023/01/01 03:12:38;;;;;;;;;;;25.80;99.90;;;;;;5013820;28;20257;-77
2023/01/01 03:15:09;;;;;;;;;;;25.90;99.90;;;;;;5014086;28;19913;-76
2023/01/01 03:17:40;;;;;;;;;;;25.90;99.90;;;;;;5014136;28;20364;-74
2023/01/01 03:20:16;;;;;;;;;;;25.70;99.90;;;;;;5013164;28;19914;-76
2023/01/01 03:22:44;;;;;;;;;;;25.60;99.90;;;;;;5014372;28;19963;-67
2023/01/01 03:25:13;;;;;;;;;;;25.70;99.90;;;;;;5013668;28;19920;-79
2023/01/01 03:27:40;;;;;;;;;;;25.80;99.90;;;;;;5013981;28;19913;-77
2023/01/01 03:30:08;;;;;;;;;;;25.80;99.90;;;;;;5014013;28;20368;-77
2023/01/01 03:35:25;;;;;;;;;;;25.70;99.90;;;;;;5013224;28;19985;-71
2023/01/01 03:37:54;;;;;;;;;;;25.70;99.90;;;;;;5013683;28;20004;-74
2023/01/01 03:40:21;;;;;;;;;;;25.70;99.90;;;;;;5013782;28;19940;-75
2023/01/01 03:42:51;;;;;;;;;;;25.80;99.90;;;;;;5013736;28;19909;-77
2023/01/01 03:45:24;;;;;;;;;;;25.60;99.90;;;;;;5013334;28;19913;-76
2023/01/01 03:47:51;;;;;;;;;;;25.40;99.90;;;;;;5013737;28;19921;-72
2023/01/01 03:50:18;;;;;;;;;;;25.30;99.90;;;;;;5013546;28;19918;-75
2023/01/01 03:52:48;;;;;;;;;;;25.20;99.90;;;;;;5013606;28;19992;-73
2023/01/01 03:55:23;;;;;;;;;;;25.20;99.90;;;;;;5012802;28;19914;-74
2023/01/01 03:58:01;;;;;;;;;;;25.00;99.90;;;;;;5013455;28;20008;-73
2023/01/01 04:00:33;;;;;;;;;;;25.10;99.90;;;;;;5013322;28;19924;-76
2023/01/01 04:03:02;;;;;;;;;;;25.20;99.90;;;;;;5013423;28;19913;-74
2023/01/01 04:05:30;;;;;;;;;;;25.30;99.90;;;;;;5012810;28;19960;-74
2023/01/01 04:08:00;;;;;;;;;;;25.30;99.90;;;;;;5013556;28;19983;-77
2023/01/01 04:10:28;;;;;;;;;;;25.20;99.90;;;;;;5013008;28;19925;-75
2023/01/01 04:12:55;;;;;;;;;;;25.10;99.90;;;;;;5013260;28;20004;-76
2023/01/01 04:15:26;;;;;;;;;;;25.10;99.90;;;;;;5012649;28;20012;-72
2023/01/01 04:17:53;;;;;;;;;;;25.10;99.90;;;;;;5013118;28;19964;-76
2023/01/01 04:20:20;;;;;;;;;;;25.00;99.90;;;;;;5013320;28;19914;-77
2023/01/01 04:22:46;;;;;;;;;;;25.10;99.90;;;;;;5013102;28;19916;-73
2023/01/01 04:25:13;;;;;;;;;;;25.20;99.90;;;;;;5012224;28;19913;-77
2023/01/01 04:27:40;;;;;;;;;;;25.20;99.90;;;;;;5013082;28;19992;-77
2023/01/01 04:30:08;;;;;;;;;;;25.20;99.90;;;;;;5012688;28;20329;-77
2023/01/01 04:32:34;;;;;;;;;;;25.30;99.90;;;;;;5013255;28;20327;-72
2023/01/01 04:35:01;;;;;;;;;;;25.40;99.90;;;;;;5012708;28;19932;-77
2023/01/01 04:37:28;;;;;;;;;;;25.30;99.90;;;;;;5012846;28;19913;-78
2023/01/01 04:39:54;;;;;;;;;;;25.30;99.90;;;;;;5012755;28;19939;-79
2023/01/01 04:42:21;;;;;;;;;;;25.30;99.90;;;;;;5012762;28;20291;-78
2023/01/01 04:44:48;;;;;;;;;;;25.40;99.90;;;;;;5012368;28;20024;-71
2023/01/01 04:47:14;;;;;;;;;;;25.40;99.90;;;;;;5012476;28;20016;-76
2023/01/01 04:49:41;;;;;;;;;;;25.30;99.90;;;;;;5012515;28;19920;-72
2023/01/01 04:52:07;;;;;;;;;;;25.20;99.90;;;;;;5012631;28;20327;-71
2023/01/01 04:54:34;;;;;;;;;;;25.10;99.90;;;;;;5012485;28;19910;-71
2023/01/01 04:57:01;;;;;;;;;;;25.00;99.90;;;;;;5012100;28;19935;-78
2023/01/01 04:59:28;;;;;;;;;;;24.90;99.90;;;;;;5012336;28;20495;-75
2023/01/01 05:01:55;;;;;;;;;;;24.90;99.90;;;;;;5012479;28;19920;-75
2023/01/01 05:04:22;;;;;;;;;;;25.00;99.90;;;;;;5012363;28;20378;-72
2023/01/01 05:06:48;;;;;;;;;;;25.10;99.90;;;;;;5012078;28;19919;-77
2023/01/01 05:09:15;;;;;;;;;;;25.20;99.90;;;;;;5012189;28;19913;-75
2023/01/01 05:11:42;;;;;;;;;;;25.20;99.90;;;;;;5012208;28;19964;-68
2023/01/01 05:14:08;;;;;;;;;;;25.20;99.90;;;;;;5012130;28;20364;-71
2023/01/01 05:16:37;;;;;;;;;;;25.30;99.90;;;;;;5011922;28;20077;-70
2023/01/01 05:19:04;;;;;;;;;;;25.30;99.90;;;;;;5012202;28;20368;-73
2023/01/01 05:21:32;;;;;;;;;;;25.20;99.90;;;;;;5011981;28;19956;-72
2023/01/01 05:24:00;;;;;;;;;;;25.10;99.90;;;;;;5012113;28;19913;-70
2023/01/01 05:26:28;;;;;;;;;;;25.10;99.90;;;;;;5011852;28;19957;-77
2023/01/01 05:28:56;;;;;;;;;;;25.30;99.90;;;;;;5011852;28;19913;-71
2023/01/01 05:31:24;;;;;;;;;;;25.30;99.90;;;;;;5011879;28;20410;-79
2023/01/01 05:33:54;;;;;;;;;;;25.40;99.90;;;;;;5011749;28;21054;-69
2023/01/01 05:36:24;;;;;;;;;;;25.30;99.90;;;;;;5011330;28;20364;-73
2023/01/01 05:38:51;;;;;;;;;;;25.30;99.90;;;;;;5011723;28;20000;-75
2023/01/01 05:41:19;;;;;;;;;;;25.20;99.90;;;;;;5011776;28;19939;-79
2023/01/01 05:43:46;;;;;;;;;;;25.30;99.90;;;;;;5015686;28;19953;-66
2023/01/01 05:46:14;;;;;;;;;;;25.20;99.90;;;;;;5015750;28;19960;-78
2023/01/01 05:48:41;;;;;;;;;;;25.10;99.90;;;;;;5015865;28;19920;-79
2023/01/01 05:51:14;;;;;;;;;;;25.10;99.90;;;;;;5016018;28;19918;-75
2023/01/01 05:53:43;;;;;;;;;;;25.00;99.90;;;;;;5015285;28;20360;-71
2023/01/01 05:56:10;;;;;;;;;;;24.90;99.90;;;;;;5014339;28;19913;-75
2023/01/01 05:58:37;;;;;;;;;;;24.70;99.90;;;;;;5015906;28;19914;-77
2023/01/01 06:01:07;;;;;;;;;;;24.60;99.90;;;;;;5015782;28;19956;-76
2023/01/01 06:03:33;;;;;;;;;;;24.60;99.90;;;;;;5015510;28;20390;-72
2023/01/01 06:06:04;;;;;;;;;;;24.70;99.90;;;;;;5015252;28;20356;-78
2023/01/01 06:08:31;;;;;;;;;;;24.70;99.90;;;;;;5015407;28;19910;-73
2023/01/01 06:10:58;;;;;;;;;;;24.70;99.90;;;;;;5015449;28;19917;-79
2023/01/01 06:13:26;;;;;;;;;;;24.80;99.90;;;;;;5015272;28;19909;-73
2023/01/01 06:15:54;;;;;;;;;;;24.80;99.90;;;;;;5015511;28;19913;-76
2023/01/01 06:18:20;;;;;;;;;;;24.70;99.90;;;;;;5015324;28;19995;-74
2023/01/01 06:20:47;;;;;;;;;;;24.80;99.90;;;;;;5015241;28;19910;-73
2023/01/01 06:23:15;;;;;;;;;;;24.80;99.90;;;;;;5014855;28;20352;-69
2023/01/01 06:25:42;;;;;;;;;;;24.70;99.90;;;;;;5014842;28;19909;-78
2023/01/01 06:28:08;;;;;;;;;;;24.70;99.90;;;;;;5015101;28;20008;-71
2023/01/01 06:30:36;;;;;;;;;;;24.80;99.90;;;;;;5015004;28;20031;-77
2023/01/01 06:33:03;;;;;;;;;;;24.70;99.90;;;;;;5015031;28;19955;-77
2023/01/01 06:35:30;;;;;;;;;;;24.70;99.90;;;;;;5012906;28;19925;-78
2023/01/01 06:38:00;;;;;;;;;;;24.50;99.90;;;;;;5014910;28;19979;-75
2023/01/01 06:40:26;;;;;;;;;;;24.50;99.90;;;;;;5014759;28;19917;-77
2023/01/01 06:42:53;;;;;;;;;;;24.40;99.90;;;;;;5014973;28;20016;-79
2023/01/01 06:45:20;;;;;;;;;;;24.30;99.90;;;;;;5014294;28;19964;-74
2023/01/01 06:47:46;;;;;;;;;;;24.30;99.90;;;;;;5014813;28;19909;-76
2023/01/01 06:50:13;;;;;;;;;;;24.30;99.90;;;;;;5014769;28;19918;-77
2023/01/01 06:52:39;;;;;;;;;;;24.20;99.90;;;;;;5014265;28;20434;-79
2023/01/01 06:55:06;;;;;;;;;;;24.20;99.90;;;;;;5014473;28;19910;-80
2023/01/01 06:57:33;;;;;;;;;;;24.10;99.90;;;;;;5014387;28;19914;-78
2023/01/01 07:00:04;;;;;;;;;;;24.10;99.90;;;;;;5013814;28;21424;-80
2023/01/01 07:02:30;;;;;;;;;;;24.20;99.90;;;;;;5014682;28;19909;-76
2023/01/01 07:04:57;;;;;;;;;;;24.20;99.90;;;;;;5014097;28;19917;-77
2023/01/01 07:07:24;;;;;;;;;;;24.20;99.90;;;;;;5014117;28;19913;-79
2023/01/01 07:09:50;;;;;;;;;;;24.20;99.90;;;;;;5014324;28;20004;-77
2023/01/01 07:12:17;;;;;;;;;;;24.00;99.90;;;;;;5014319;28;19932;-78
2023/01/01 07:14:43;;;;;;;;;;;24.10;99.90;;;;;;5013868;28;20012;-76
2023/01/01 07:17:10;;;;;;;;;;;24.10;99.90;;;;;;5014162;28;19987;-76
2023/01/01 07:19:37;;;;;;;;;;;24.10;99.90;;;;;;5014242;28;19935;-79
2023/01/01 07:22:03;;;;;;;;;;;24.00;99.90;;;;;;5014197;28;19914;-74
2023/01/01 07:24:30;;;;;;;;;;;24.00;99.90;;;;;;5014008;28;19936;-75
2023/01/01 07:26:57;;;;;;;;;;;24.00;99.90;;;;;;5014010;28;19910;-73
2023/01/01 07:29:23;;;;;;;;;;;23.90;99.90;;;;;;5013877;28;19916;-77
2023/01/01 07:31:50;;;;;;;;;;;23.80;99.90;;;;;;5013946;28;19921;-78
2023/01/01 07:34:18;;;;;;;;;;;23.90;99.90;;;;;;5013758;28;20016;-69
2023/01/01 07:36:45;;;;;;;;;;;23.80;99.90;;;;;;5013475;28;19913;-77
2023/01/01 07:39:12;;;;;;;;;;;23.70;99.90;;;;;;5013786;28;20348;-79
2023/01/01 07:41:38;;;;;;;;;;;23.80;99.90;;;;;;5013776;28;20300;-78
2023/01/01 07:44:05;;;;;;;;;;;23.70;99.90;;;;;;5014055;28;19910;-75
2023/01/01 07:46:33;;;;;;;;;;;23.60;99.90;;;;;;5013504;28;19914;-66
2023/01/01 07:49:01;;;;;;;;;;;23.60;99.90;;;;;;5014002;28;19917;-66
2023/01/01 07:51:27;;;;;;;;;;;23.60;99.90;;;;;;5013908;28;20371;-67
2023/01/01 07:53:54;;;;;;;;;;;23.60;99.90;;;;;;5013921;28;20506;-66
2023/01/01 07:56:21;;;;;;;;;;;23.50;99.90;;;;;;5013561;28;19913;-66
2023/01/01 07:58:47;;;;;;;;;;;23.50;99.90;;;;;;5014203;28;19916;-68
2023/01/01 08:01:14;;;;;;;;;;;23.50;99.90;;;;;;5013845;28;19910;-66
2023/01/01 08:03:41;;;;;;;;;;;23.60;99.90;;;;;;5013967;28;19956;-66
2023/01/01 08:06:12;;;;;;;;;;;23.60;99.90;;;;;;5012819;28;19910;-66
2023/01/01 08:08:39;;;;;;;;;;;23.60;99.90;;;;;;5013529;28;20056;-66
2023/01/01 08:11:05;;;;;;;;;;;23.60;99.90;;;;;;5013969;28;19921;-66
2023/01/01 08:13:32;;;;;;;;;;;23.50;99.90;;;;;;5013587;28;19972;-68
2023/01/01 08:15:59;;;;;;;;;;;23.40;99.90;;;;;;5013699;28;19917;-66
2023/01/01 08:18:26;;;;;;;;;;;23.40;99.90;;;;;;5013625;28;19920;-66
2023/01/01 08:20:53;;;;;;;;;;;23.50;99.90;;;;;;5013788;28;19909;-67
2023/01/01 08:23:19;;;;;;;;;;;23.40;99.90;;;;;;5015473;28;19917;-66
2023/01/01 08:25:46;;;;;;;;;;;23.40;99.90;;;;;;5013252;28;19909;-66
2023/01/01 08:28:12;;;;;;;;;;;23.30;99.90;;;;;;5013121;28;19914;-66
2023/01/01 08:30:39;;;;;;;;;;;23.30;99.90;;;;;;5013196;28;20261;-66
2023/01/01 08:33:06;;;;;;;;;;;23.30;99.90;;;;;;5013275;28;20348;-66
2023/01/01 08:35:33;;;;;;;;;;;23.30;99.90;;;;;;5012679;28;19956;-65
2023/01/01 08:38:00;;;;;;;;;;;23.30;99.90;;;;;;5013105;28;19909;-65
2023/01/01 08:40:27;;;;;;;;;;;23.30;99.90;;;;;;5013110;28;19936;-66
2023/01/01 08:42:54;;;;;;;;;;;23.30;99.90;;;;;;5013374;28;19932;-67
2023/01/01 08:45:20;;;;;;;;;;;23.30;99.90;;;;;;5013881;28;19909;-66
2023/01/01 08:47:47;;;;;;;;;;;23.30;99.90;;;;;;5014981;28;19920;-67
2023/01/01 08:50:14;;;;;;;;;;;23.20;99.90;;;;;;5017907;28;19913;-67
2023/01/01 08:52:40;;;;;;;;;;;23.20;99.90;;;;;;5013058;28;19913;-66
2023/01/01 08:55:07;;;;;;;;;;;23.10;99.90;;;;;;5012987;28;19917;-65
2023/01/01 08:57:34;;;;;;;;;;;23.20;99.90;;;;;;5013055;28;20369;-65
2023/01/01 09:00:00;;;;;;;;;;;23.20;99.90;;;;;;5013196;28;19909;-66
2023/01/01 09:02:27;;;;;;;;;;;23.10;99.90;;;;;;5013771;28;19914;-67
2023/01/01 09:04:54;;;;;;;;;;;23.00;99.90;;;;;;5012771;28;20406;-70
2023/01/01 09:07:20;;;;;;;;;;;23.00;99.90;;;;;;5013716;28;19988;-67
2023/01/01 09:09:47;;;;;;;;;;;23.00;99.90;;;;;;5014342;28;20352;-67
2023/01/01 09:12:14;;;;;;;;;;;22.90;99.90;;;;;;5014619;28;19940;-67
2023/01/01 09:14:42;;;;;;;;;;;22.90;99.90;;;;;;5015592;28;19913;-78
2023/01/01 09:17:08;;;;;;;;;;;23.00;99.90;;;;;;5024995;28;19977;-71
2023/01/01 09:19:35;;;;;;;;;;;22.90;99.90;;;;;;5020658;28;19910;-75
2023/01/01 09:22:01;;;;;;;;;;;22.90;99.90;;;;;;5019621;28;19940;-77
2023/01/01 09:24:28;;;;;;;;;;;22.90;99.90;;;;;;5023142;28;19904;-77
2023/01/01 09:26:55;;;;;;;;;;;22.90;99.90;;;;;;5023910;28;19972;-77
2023/01/01 09:29:21;;;;;;;;;;;22.80;99.90;;;;;;5026079;28;19916;-80
2023/01/01 09:31:48;;;;;;;;;;;22.80;99.90;;;;;;5023403;28;20036;-71
2023/01/01 09:34:16;;;;;;;;;;;22.80;99.90;;;;;;5018472;28;19955;-73
2023/01/01 09:36:43;;;;;;;;;;;22.70;99.90;;;;;;5017132;28;19914;-77
2023/01/01 09:39:14;;;;;;;;;;;22.70;99.90;;;;;;5018300;28;19948;-72
2023/01/01 09:41:40;;;;;;;;;;;22.70;99.90;;;;;;5019684;28;19909;-77
2023/01/01 09:44:23;;;;;;;;;;;22.70;99.90;;;;;;5016295;28;19949;-79
2023/01/01 09:46:51;;;;;;;;;;;22.80;99.90;;;;;;5018443;28;20048;-79
2023/01/01 09:49:22;;;;;;;;;;;22.80;99.90;;;;;;5016819;28;20072;-79
2023/01/01 09:51:52;;;;;;;;;;;22.70;99.90;;;;;;5016874;28;20003;-78
2023/01/01 09:54:25;;;;;;;;;;;22.70;99.90;;;;;;5016944;28;19919;-79
2023/01/01 09:56:54;;;;;;;;;;;22.70;99.90;;;;;;5018013;28;19920;-75
2023/01/01 09:59:21;;;;;;;;;;;22.70;99.90;;;;;;5016394;28;19917;-72
2023/01/01 10:01:56;;;;;;;;;;;22.70;99.90;;;;;;5017433;28;19909;-80
2023/01/01 10:04:32;;;;;;;;;;;22.70;99.90;;;;;;5015897;28;20329;-79
2023/01/01 10:07:08;;;;;;;;;;;22.70;99.90;;;;;;5016005;28;19920;-75
2023/01/01 10:09:53;;;;;;;;;;;22.70;99.90;;;;;;5015770;28;19981;-75
2023/01/01 10:12:39;;;;;;;;;;;22.60;99.90;;;;;;5014621;28;19932;-78
2023/01/01 10:15:18;;;;;;;;;;;22.60;99.90;;;;;;5013446;28;19910;-72
2023/01/01 10:17:49;;;;;;;;;;;22.60;99.90;;;;;;5012088;28;19932;-77
2023/01/01 10:20:35;;;;;;;;;;;22.60;99.90;;;;;;5012201;28;19972;-75
2023/01/01 10:23:22;;;;;;;;;;;22.60;99.90;;;;;;5011606;28;19952;-78
2023/01/01 10:25:49;;;;;;;;;;;22.70;99.90;;;;;;5011566;28;19948;-79
2023/01/01 10:28:15;;;;;;;;;;;22.60;99.90;;;;;;5014872;28;19953;-78
2023/01/01 10:30:42;;;;;;;;;;;22.60;99.90;;;;;;5019499;28;19917;-78
2023/01/01 10:33:11;;;;;;;;;;;22.60;99.90;;;;;;5018975;28;19957;-70
2023/01/01 10:35:39;;;;;;;;;;;22.50;99.90;;;;;;5020149;28;19929;-77
2023/01/01 10:38:06;;;;;;;;;;;22.50;99.90;;;;;;5020439;28;19977;-78
2023/01/01 10:40:33;;;;;;;;;;;22.50;99.90;;;;;;5018130;28;19917;-66
2023/01/01 10:43:02;;;;;;;;;;;22.50;99.90;;;;;;5015252;28;19914;-71
2023/01/01 10:45:48;;;;;;;;;;;22.50;99.90;;;;;;5014749;28;19914;-69
2023/01/01 10:48:15;;;;;;;;;;;22.50;99.90;;;;;;5015078;28;19916;-70
2023/01/01 10:51:02;;;;;;;;;;;22.50;99.90;;;;;;5015485;28;20064;-67
2023/01/01 10:53:31;;;;;;;;;;;22.50;99.90;;;;;;5014934;28;20284;-67
2023/01/01 10:55:58;;;;;;;;;;;22.50;99.90;;;;;;5014864;28;19955;-68
2023/01/01 10:58:44;;;;;;;;;;;22.50;99.90;;;;;;5014871;28;19914;-69
2023/01/01 11:01:19;;;;;;;;;;;22.50;99.90;;;;;;5014792;28;19920;-71
2023/01/01 11:03:52;;;;;;;;;;;22.50;99.90;;;;;;5014834;28;19914;-74
2023/01/01 11:06:22;;;;;;;;;;;22.50;99.90;;;;;;5014389;28;19967;-75
2023/01/01 11:08:50;;;;;;;;;;;22.40;99.90;;;;;;5014692;28;20013;-67
2023/01/01 11:11:19;;;;;;;;;;;22.40;99.90;;;;;;5014465;28;19925;-76
2023/01/01 11:13:50;;;;;;;;;;;22.50;99.90;;;;;;5014653;28;19910;-74
2023/01/01 11:16:16;;;;;;;;;;;22.40;99.90;;;;;;5014303;28;20356;-77
2023/01/01 11:18:43;;;;;;;;;;;22.40;99.90;;;;;;5013494;28;20267;-79
2023/01/01 11:21:10;;;;;;;;;;;22.50;99.90;;;;;;5014576;28;19920;-78
2023/01/01 11:23:37;;;;;;;;;;;22.50;99.90;;;;;;5014484;28;19910;-76
2023/01/01 11:26:04;;;;;;;;;;;22.50;99.90;;;;;;5014281;28;19909;-72
2023/01/01 11:28:33;;;;;;;;;;;22.60;99.90;;;;;;5014440;28;19910;-78
2023/01/01 11:31:16;;;;;;;;;;;22.60;99.90;;;;;;5014419;28;19922;-77
2023/01/01 11:33:51;;;;;;;;;;;22.60;99.90;;;;;;5014562;28;20511;-76
2023/01/01 11:36:29;;;;;;;;;;;22.60;99.90;;;;;;5013817;28;19921;-79
2023/01/01 11:39:07;;;;;;;;;;;22.50;99.90;;;;;;5014082;28;20411;-79
2023/01/01 11:41:42;;;;;;;;;;;22.60;99.90;;;;;;5013736;28;19936;-74
2023/01/01 11:44:10;;;;;;;;;;;22.50;99.90;;;;;;5013943;28;19929;-75
2023/01/01 11:46:37;;;;;;;;;;;22.50;99.90;;;;;;5014354;28;19910;-78
2023/01/01 11:49:12;;;;;;;;;;;22.50;99.90;;;;;;5014167;28;19968;-72
2023/01/01 11:51:39;;;;;;;;;;;22.50;99.90;;;;;;5013760;28;20267;-77
2023/01/01 11:54:10;;;;;;;;;;;22.40;99.90;;;;;;5013621;28;19919;-75
2023/01/01 11:56:37;;;;;;;;;;;22.40;99.90;;;;;;5013957;28;19921;-74
2023/01/01 11:59:11;;;;;;;;;;;22.40;99.90;;;;;;5013968;28;19916;-71
2023/01/01 12:01:37;;;;;;;;;;;22.50;99.90;;;;;;5013797;28;20407;-76
2023/01/01 12:04:07;;;;;;;;;;;22.50;99.90;;;;;;5013430;28;19964;-76
2023/01/01 12:06:46;;;;;;;;;;;22.50;99.90;;;;;;5013762;28;19913;-74
2023/01/01 12:09:13;;;;;;;;;;;22.50;99.90;;;;;;5013676;28;20423;-71
2023/01/01 12:12:08;;;;;;;;;;;22.60;99.90;;;;;;5013588;28;19922;-79
2023/01/01 12:14:41;;;;;;;;;;;22.50;99.90;;;;;;5004261;28;20048;-73
2023/01/01 12:17:17;;;;;;;;;;;22.50;99.90;;;;;;5013585;28;20283;-76
2023/01/01 12:19:57;;;;;;;;;;;22.50;99.90;;;;;;5013402;28;19913;-75
2023/01/01 12:22:24;;;;;;;;;;;22.50;99.90;;;;;;5013366;28;20375;-75
2023/01/01 12:24:51;;;;;;;;;;;22.50;99.90;;;;;;5013625;28;20064;-76
2023/01/01 12:27:30;;;;;;;;;;;22.50;99.90;;;;;;5013067;28;19916;-78
2023/01/01 12:30:14;;;;;;;;;;;22.50;99.90;;;;;;5013248;28;19909;-76
2023/01/01 12:32:58;;;;;;;;;;;22.40;99.90;;;;;;5013262;28;19937;-79
2023/01/01 12:35:31;;;;;;;;;;;22.50;99.90;;;;;;5012288;28;19925;-79
2023/01/01 12:38:15;;;;;;;;;;;22.50;99.90;;;;;;5013419;28;19913;-70
2023/01/01 12:41:00;;;;;;;;;;;22.40;99.90;;;;;;5013126;28;20323;-79
2023/01/01 12:43:35;;;;;;;;;;;22.40;99.90;;;;;;5012876;28;20284;-73
2023/01/01 12:46:12;;;;;;;;;;;22.40;99.90;;;;;;5012900;28;19916;-79
2023/01/01 12:48:49;;;;;;;;;;;22.40;99.90;;;;;;5012925;28;19959;-77
2023/01/01 12:51:18;;;;;;;;;;;22.40;99.90;;;;;;5012530;28;19917;-77
2023/01/01 12:53:50;;;;;;;;;;;22.40;99.90;;;;;;5012782;28;20016;-75
2023/01/01 12:56:23;;;;;;;;;;;22.40;99.90;;;;;;5012442;28;19996;-77
2023/01/01 12:59:09;;;;;;;;;;;22.30;99.90;;;;;;5012842;28;19916;-78
2023/01/01 13:01:36;;;;;;;;;;;22.30;99.90;;;;;;5013009;28;19916;-76
2023/01/01 13:04:15;;;;;;;;;;;22.30;99.90;;;;;;5012390;28;19920;-76
2023/01/01 13:06:50;;;;;;;;;;;22.30;99.90;;;;;;5012695;28;20356;-71
2023/01/01 13:09:16;;;;;;;;;;;22.30;99.90;;;;;;5012627;28;19910;-73
2023/01/01 13:11:44;;;;;;;;;;;22.30;99.90;;;;;;5012684;28;19921;-70
2023/01/01 13:14:11;;;;;;;;;;;22.40;99.90;;;;;;5012611;28;19914;-72
2023/01/01 13:16:40;;;;;;;;;;;22.30;99.90;;;;;;5012845;28;20004;-81
2023/01/01 13:19:22;;;;;;;;;;;22.40;99.90;;;;;;5013049;28;19909;-77
2023/01/01 13:21:49;;;;;;;;;;;22.40;99.90;;;;;;5013300;28;19918;-75
2023/01/01 13:24:23;;;;;;;;;;;22.40;99.90;;;;;;5012092;28;20447;-78
2023/01/01 13:26:50;;;;;;;;;;;22.40;99.90;;;;;;5012484;28;19910;-78
2023/01/01 13:29:20;;;;;;;;;;;22.40;99.90;;;;;;5012243;28;19914;-75
2023/01/01 13:31:46;;;;;;;;;;;22.40;99.90;;;;;;5009757;28;19929;-70
2023/01/01 13:34:31;;;;;;;;;;;22.40;99.90;;;;;;5002900;28;19925;-74
2023/01/01 13:37:10;;;;;;;;;;;22.50;99.90;;;;;;5003669;28;20265;-76
2023/01/01 13:39:52;;;;;;;;;;;22.50;99.90;;;;;;5003671;28;20324;-72
2023/01/01 13:42:38;;;;;;;;;;;22.40;99.90;;;;;;5003678;28;20111;-73
2023/01/01 13:45:25;;;;;;;;;;;22.40;99.90;;;;;;5002820;28;19917;-77
2023/01/01 13:48:03;;;;;;;;;;;22.40;99.90;;;;;;5002922;28;19913;-73
2023/01/01 13:50:30;;;;;;;;;;;22.40;99.90;;;;;;5002787;28;20463;-75
2023/01/01 13:53:02;;;;;;;;;;;22.40;99.90;;;;;;5003674;28;19924;-77
2023/01/01 13:55:47;;;;;;;;;;;22.50;99.90;;;;;;5003242;28;19918;-73
2023/01/01 13:58:29;;;;;;;;;;;22.40;99.90;;;;;;5018095;28;20395;-80
2023/01/01 14:00:55;;;;;;;;;;;22.50;99.90;;;;;;5002993;28;20430;-73
2023/01/01 14:03:24;;;;;;;;;;;22.50;99.90;;;;;;5004673;28;20307;-74
2023/01/01 14:05:58;;;;;;;;;;;22.50;99.90;;;;;;5007010;28;20547;-72
2023/01/01 14:08:29;;;;;;;;;;;22.50;99.90;;;;;;5007586;28;19980;-76
2023/01/01 14:10:56;;;;;;;;;;;22.50;99.90;;;;;;5007198;28;20396;-77
2023/01/01 14:13:27;;;;;;;;;;;22.40;99.90;;;;;;5007000;28;20064;-74
2023/01/01 14:15:56;;;;;;;;;;;22.40;99.90;;;;;;5007190;28;19932;-73
2023/01/01 14:18:31;;;;;;;;;;;22.40;99.90;;;;;;5006692;28;20011;-74
2023/01/01 14:20:58;;;;;;;;;;;22.40;99.90;;;;;;5007119;28;19913;-77
2023/01/01 14:23:33;;;;;;;;;;;22.30;99.90;;;;;;5007087;28;20295;-74
2023/01/01 14:26:02;;;;;;;;;;;22.30;99.90;;;;;;5006419;28;19959;-70
2023/01/01 14:28:33;;;;;;;;;;;22.30;99.90;;;;;;5005486;28;20036;-75
2023/01/01 14:31:04;;;;;;;;;;;22.20;99.90;;;;;;5007194;28;20302;-76
2023/01/01 14:33:32;;;;;;;;;;;22.20;99.90;;;;;;5006496;28;20378;-77
2023/01/01 14:36:00;;;;;;;;;;;22.20;99.90;;;;;;5007003;28;19972;-73
2023/01/01 14:38:28;;;;;;;;;;;22.20;99.90;;;;;;5006924;28;19913;-78
2023/01/01 14:41:12;;;;;;;;;;;22.20;99.90;;;;;;5006832;28;19913;-75